ADDS METAR Data INFO
IDs: Format: Raw Decoded Include TAF

Data at: 0752 UTC 17 Oct 2017

KCGI 170719Z AUTO 00000KT 10SM CLR 02/01 A3032 RMK AO2 T00220011
KCGI 170712Z AUTO 23003KT 2SM BR CLR 02/01 A3032 RMK AO2 T00220011
KCGI 170706Z AUTO 00000KT 1/2SM FG CLR 02/01 A3032 RMK AO2 T00220011 RVRNO
KCGI 170656Z AUTO 00000KT 1 3/4SM BR CLR 03/02 A3032 RMK AO2 T00280017
KCGI 170653Z AUTO 00000KT 6SM BR CLR 03/02 A3032 RMK AO2 SLP268 T00280017
KCGI 170553Z AUTO 00000KT 10SM CLR 05/04 A3032 RMK AO2 SLP266 T00500039 10128 20033 401890028 56005
KCGI 170453Z AUTO 00000KT 10SM CLR 05/04 A3032 RMK AO2 SLP268 T00500039
KCGI 170353Z AUTO 10003KT 10SM CLR 06/04 A3032 RMK AO2 SLP268 T00610044
KCGI 170253Z AUTO 00000KT 10SM CLR 06/03 A3033 RMK AO2 SLP272 T00560033 51009
KCGI 170153Z AUTO 10004KT 10SM CLR 06/03 A3032 RMK AO2 SLP268 T00610033
KCGI 170053Z AUTO 00000KT 10SM CLR 09/04 A3032 RMK AO2 SLP267 T00890044
KCGI 162353Z AUTO 00000KT 10SM CLR 12/03 A3030 RMK AO2 SLP263 T01220033 10189 20117 55003
KCGI 162253Z AUTO 03005KT 10SM CLR 17/02 A3030 RMK AO2 SLP261 T01670022
KCGI 162153Z 01009KT 10SM CLR 18/02 A3031 RMK AO2 SLP263 T01830017
KCGI 162053Z 05011KT 10SM CLR 19/02 A3031 RMK AO2 SLP264 T01890017 56022
KCGI 161953Z 04008KT 010V080 10SM CLR 19/03 A3032 RMK AO2 SLP268 T01890028
KCGI 161853Z 04007KT 350V070 10SM CLR 18/03 A3035 RMK AO2 SLP276 T01780033
KCGI 161753Z VRB03G14KT 10SM CLR 17/04 A3038 RMK AO2 SLP286 T01720039 10172 20028 58009
KCGI 161653Z 01009KT 10SM CLR 17/03 A3040 RMK AO2 SLP295 T01670033
KCGI 161553Z 36012KT 10SM CLR 15/04 A3041 RMK AO2 SLP297 T01500039
KCGI 161453Z 35006KT 10SM CLR 13/05 A3041 RMK AO2 SLP296 T01280050 51013
KCGI 161353Z 34004KT 10SM CLR 10/06 A3040 RMK AO2 SLP293 T01000061
KCGI 161253Z 23003KT 10SM CLR 05/04 A3038 RMK AO2 SLP288 T00500044
KCGI 161153Z AUTO 25003KT 10SM CLR 03/02 A3037 RMK AO2 SLP284 70014 T00280022 10089 20028 53009
KCGI 161053Z AUTO 25003KT 10SM CLR 04/03 A3036 RMK AO2 SLP279 T00390033
KCGI 160953Z AUTO 23003KT 10SM CLR 04/04 A3035 RMK AO2 SLP275 T00440039
KCGI 160853Z AUTO 26003KT 10SM CLR 04/03 A3034 RMK AO2 SLP273 T00440033 51005
KCGI 160753Z AUTO 29004KT 10SM CLR 05/04 A3034 RMK AO2 SLP272 T00500039
KCGI 160653Z AUTO 34004KT 10SM CLR 08/05 A3033 RMK AO2 SLP270 T00830050
KCGI 160553Z AUTO 36005KT 10SM CLR 09/05 A3032 RMK AO2 SLP268 T00890050 10144 20089 402440089 51010
KCGI 160453Z AUTO 36003KT 10SM CLR 09/06 A3032 RMK AO2 SLP267 T00940061
KCGI 160353Z AUTO 36006KT 10SM CLR 10/06 A3032 RMK AO2 SLP265 T01000061
KCGI 160253Z AUTO 36005KT 10SM CLR 10/06 A3029 RMK AO2 SLP258 T01000061 53024
KCGI 160153Z AUTO 36005KT 10SM CLR 11/06 A3027 RMK AO2 SLP247 T01110061
KCGI 160053Z AUTO 02004KT 10SM CLR 13/06 A3025 RMK AO2 SLP241 T01280061
KCGI 152353Z AUTO 35007KT 10SM CLR 14/06 A3022 RMK AO2 SLP232 T01440061 10189 20144 53019
KCGI 152253Z AUTO 35011KT 10SM CLR 17/06 A3019 RMK AO2 SLP222 T01670061
KCGI 152153Z AUTO 36015G19KT 10SM CLR 18/06 A3018 RMK AO2 SLP216 T01830061
KCGI 152053Z AUTO 35017G22KT 10SM CLR 19/08 A3016 RMK AO2 SLP212 T01890078 55002
KCGI 151953Z 35010G20KT 10SM CLR 18/08 A3016 RMK AO2 SLP210 T01780083